sensor_id;sensor_type;location;lat;lon;timestamp;P1;durP1;ratioP1;P2;durP2;ratioP2
23252;SDS011;11795;47.054;15.408;2022-09-01T00:00:03;6.7;;;6.1;;
23252;SDS011;11795;47.054;15.408;2022-09-01T00:02:02;6.7;;;6.1;;
23252;SDS011;11795;47.054;15.408;2022-09-01T00:04:02;6.4;;;5.8;;
23252;SDS011;11795;47.054;15.408;2022-09-01T00:06:00;6.4;;;5.8;;
23252;SDS011;11795;47.054;15.408;2022-09-01T00:08:00;7.0;;;6.4;;
23252;SDS011;11795;47.054;15.408;2022-09-01T00:10:00;7.0;;;6.4;;
23252;SDS011;11795;47.054;15.408;2022-09-01T00:12:00;7.0;;;6.4;;
23252;SDS011;11795;47.054;15.408;2022-09-01T00:14:01;8.0;;;7.2;;
23252;SDS011;11795;47.054;15.408;2022-09-01T00:16:03;8.0;;;7.2;;
23252;SDS011;11795;47.054;15.408;2022-09-01T00:18:00;7.6;;;6.9;;
23252;SDS011;11795;47.054;15.408;2022-09-01T00:20:00;7.6;;;6.9;;
23252;SDS011;11795;47.054;15.408;2022-09-01T00:22:00;7.6;;;6.9;;
23252;SDS011;11795;47.054;15.408;2022-09-01T00:24:00;7.7;;;6.6;;
23252;SDS011;11795;47.054;15.408;2022-09-01T00:26:00;7.7;;;6.6;;
23252;SDS011;11795;47.054;15.408;2022-09-01T00:28:03;7.6;;;7.0;;
23252;SDS011;11795;47.054;15.408;2022-09-01T00:30:00;7.6;;;7.0;;
23252;SDS011;11795;47.054;15.408;2022-09-01T00:32:00;7.6;;;7.0;;
23252;SDS011;11795;47.054;15.408;2022-09-01T00:34:00;6.8;;;6.2;;
23252;SDS011;11795;47.054;15.408;2022-09-01T00:36:00;6.8;;;6.2;;
23252;SDS011;11795;47.054;15.408;2022-09-01T00:38:00;6.5;;;6.0;;
23252;SDS011;11795;47.054;15.408;2022-09-01T00:40:00;6.5;;;6.0;;
23252;SDS011;11795;47.054;15.408;2022-09-01T00:42:01;6.5;;;6.0;;
23252;SDS011;11795;47.054;15.408;2022-09-01T00:44:01;6.1;;;5.5;;
23252;SDS011;11795;47.054;15.408;2022-09-01T00:46:00;6.1;;;5.5;;
23252;SDS011;11795;47.054;15.408;2022-09-01T00:48:00;7.2;;;6.6;;
23252;SDS011;11795;47.054;15.408;2022-09-01T00:50:00;7.2;;;6.6;;
23252;SDS011;11795;47.054;15.408;2022-09-01T00:52:02;7.2;;;6.6;;
23252;SDS011;11795;47.054;15.408;2022-09-01T00:54:00;7.5;;;6.2;;
23252;SDS011;11795;47.054;15.408;2022-09-01T00:56:00;7.5;;;6.2;;
23252;SDS011;11795;47.054;15.408;2022-09-01T00:58:00;6.2;;;5.6;;
23252;SDS011;11795;47.054;15.408;2022-09-01T01:00:01;6.2;;;5.6;;
23252;SDS011;11795;47.054;15.408;2022-09-01T01:02:00;6.2;;;5.6;;
23252;SDS011;11795;47.054;15.408;2022-09-01T01:04:01;5.9;;;5.4;;
23252;SDS011;11795;47.054;15.408;2022-09-01T01:06:01;5.9;;;5.4;;
23252;SDS011;11795;47.054;15.408;2022-09-01T01:08:00;6.4;;;5.8;;
23252;SDS011;11795;47.054;15.408;2022-09-01T01:10:00;6.4;;;5.8;;
23252;SDS011;11795;47.054;15.408;2022-09-01T01:12:01;6.4;;;5.8;;
23252;SDS011;11795;47.054;15.408;2022-09-01T01:14:03;6.3;;;5.7;;
23252;SDS011;11795;47.054;15.408;2022-09-01T01:16:01;6.3;;;5.7;;
23252;SDS011;11795;47.054;15.408;2022-09-01T01:18:00;6.3;;;6.5;;
23252;SDS011;11795;47.054;15.408;2022-09-01T01:20:10;7.1;;;6.5;;
23252;SDS011;11795;47.054;15.408;2022-09-01T01:22:12;7.1;;;6.5;;
23252;SDS011;11795;47.054;15.408;2022-09-01T01:24:01;5.3;;;4.9;;
23252;SDS011;11795;47.054;15.408;2022-09-01T01:26:00;5.3;;;4.9;;
23252;SDS011;11795;47.054;15.408;2022-09-01T01:28:03;5.3;;;4.9;;
23252;SDS011;11795;47.054;15.408;2022-09-01T01:30:00;4.3;;;4.0;;
23252;SDS011;11795;47.054;15.408;2022-09-01T01:32:01;4.3;;;4.0;;
23252;SDS011;11795;47.054;15.408;2022-09-01T01:34:00;3.4;;;3.2;;
23252;SDS011;11795;47.054;15.408;2022-09-01T01:36:01;3.4;;;3.2;;
23252;SDS011;11795;47.054;15.408;2022-09-01T01:38:01;3.4;;;3.2;;
23252;SDS011;11795;47.054;15.408;2022-09-01T01:40:00;2.9;;;2.7;;
23252;SDS011;11795;47.054;15.408;2022-09-01T01:42:00;2.9;;;2.7;;
23252;SDS011;11795;47.054;15.408;2022-09-01T01:44:03;2.9;;;2.7;;
23252;SDS011;11795;47.054;15.408;2022-09-01T01:46:02;2.9;;;2.7;;
23252;SDS011;11795;47.054;15.408;2022-09-01T01:48:07;3.4;;;3.0;;
23252;SDS011;11795;47.054;15.408;2022-09-01T01:50:00;3.4;;;3.0;;
23252;SDS011;11795;47.054;15.408;2022-09-01T01:52:00;3.4;;;3.0;;
23252;SDS011;11795;47.054;15.408;2022-09-01T01:54:04;3.2;;;3.0;;
23252;SDS011;11795;47.054;15.408;2022-09-01T01:56:01;3.2;;;3.0;;
23252;SDS011;11795;47.054;15.408;2022-09-01T01:58:00;3.2;;;3.0;;
23252;SDS011;11795;47.054;15.408;2022-09-01T02:00:00;3.3;;;3.0;;
23252;SDS011;11795;47.054;15.408;2022-09-01T02:02:02;3.3;;;3.0;;
23252;SDS011;11795;47.054;15.408;2022-09-01T02:04:00;3.3;;;3.0;;
23252;SDS011;11795;47.054;15.408;2022-09-01T02:06:04;3.3;;;3.0;;
23252;SDS011;11795;47.054;15.408;2022-09-01T02:08:02;3.3;;;3.0;;
23252;SDS011;11795;47.054;15.408;2022-09-01T02:10:00;3.2;;;3.0;;
23252;SDS011;11795;47.054;15.408;2022-09-01T02:12:00;3.2;;;3.0;;
23252;SDS011;11795;47.054;15.408;2022-09-01T02:14:00;3.4;;;3.1;;
23252;SDS011;11795;47.054;15.408;2022-09-01T02:16:01;3.4;;;3.1;;
23252;SDS011;11795;47.054;15.408;2022-09-01T02:18:00;3.4;;;3.1;;
23252;SDS011;11795;47.054;15.408;2022-09-01T02:20:00;3.3;;;3.1;;
23252;SDS011;11795;47.054;15.408;2022-09-01T02:22:00;3.3;;;3.1;;
23252;SDS011;11795;47.054;15.408;2022-09-01T02:24:02;3.1;;;2.9;;
23252;SDS011;11795;47.054;15.408;2022-09-01T02:26:01;3.1;;;2.9;;
23252;SDS011;11795;47.054;15.408;2022-09-01T02:28:03;3.1;;;2.9;;
23252;SDS011;11795;47.054;15.408;2022-09-01T02:30:02;3.5;;;3.2;;
23252;SDS011;11795;47.054;15.408;2022-09-01T02:32:01;3.5;;;3.2;;
23252;SDS011;11795;47.054;15.408;2022-09-01T02:34:00;3.4;;;3.1;;
23252;SDS011;11795;47.054;15.408;2022-09-01T02:36:01;3.4;;;3.1;;
23252;SDS011;11795;47.054;15.408;2022-09-01T02:38:00;3.4;;;3.1;;
23252;SDS011;11795;47.054;15.408;2022-09-01T02:40:01;3.4;;;3.1;;
23252;SDS011;11795;47.054;15.408;2022-09-01T02:42:00;3.4;;;3.1;;
23252;SDS011;11795;47.054;15.408;2022-09-01T02:44:01;3.6;;;3.3;;
23252;SDS011;11795;47.054;15.408;2022-09-01T02:46:00;3.6;;;3.3;;
23252;SDS011;11795;47.054;15.408;2022-09-01T02:48:00;3.6;;;3.3;;
23252;SDS011;11795;47.054;15.408;2022-09-01T02:50:00;3.1;;;2.9;;
23252;SDS011;11795;47.054;15.408;2022-09-01T02:52:01;3.1;;;2.9;;
23252;SDS011;11795;47.054;15.408;2022-09-01T02:54:00;3.1;;;2.9;;
23252;SDS011;11795;47.054;15.408;2022-09-01T02:56:01;3.1;;;2.9;;
23252;SDS011;11795;47.054;15.408;2022-09-01T02:58:00;3.1;;;2.9;;
23252;SDS011;11795;47.054;15.408;2022-09-01T03:00:00;3.5;;;3.3;;
23252;SDS011;11795;47.054;15.408;2022-09-01T03:02:00;3.5;;;3.3;;
23252;SDS011;11795;47.054;15.408;2022-09-01T03:04:00;3.4;;;3.1;;
23252;SDS011;11795;47.054;15.408;2022-09-01T03:06:00;3.4;;;3.1;;
23252;SDS011;11795;47.054;15.408;2022-09-01T03:08:01;3.4;;;3.1;;
23252;SDS011;11795;47.054;15.408;2022-09-01T03:10:02;3.4;;;3.2;;
23252;SDS011;11795;47.054;15.408;2022-09-01T03:12:00;3.4;;;3.2;;
23252;SDS011;11795;47.054;15.408;2022-09-01T03:14:00;3.4;;;3.1;;
23252;SDS011;11795;47.054;15.408;2022-09-01T03:16:00;3.4;;;3.1;;
23252;SDS011;11795;47.054;15.408;2022-09-01T03:18:01;3.4;;;3.1;;
23252;SDS011;11795;47.054;15.408;2022-09-01T03:20:00;3.4;;;3.2;;
23252;SDS011;11795;47.054;15.408;2022-09-01T03:22:00;3.4;;;3.2;;
23252;SDS011;11795;47.054;15.408;2022-09-01T03:24:02;3.3;;;3.1;;
23252;SDS011;11795;47.054;15.408;2022-09-01T03:26:00;3.3;;;3.1;;
23252;SDS011;11795;47.054;15.408;2022-09-01T03:28:02;3.3;;;3.1;;
23252;SDS011;11795;47.054;15.408;2022-09-01T03:30:00;3.3;;;3.1;;
23252;SDS011;11795;47.054;15.408;2022-09-01T03:32:00;3.3;;;3.1;;
23252;SDS011;11795;47.054;15.408;2022-09-01T03:34:00;3.6;;;3.3;;
23252;SDS011;11795;47.054;15.408;2022-09-01T03:36:00;3.6;;;3.3;;
23252;SDS011;11795;47.054;15.408;2022-09-01T03:38:00;3.6;;;3.3;;
23252;SDS011;11795;47.054;15.408;2022-09-01T03:40:01;3.9;;;3.6;;
23252;SDS011;11795;47.054;15.408;2022-09-01T03:42:00;3.9;;;3.6;;
23252;SDS011;11795;47.054;15.408;2022-09-01T03:44:00;4.0;;;3.7;;
23252;SDS011;11795;47.054;15.408;2022-09-01T03:46:00;4.0;;;3.7;;
23252;SDS011;11795;47.054;15.408;2022-09-01T03:48:00;4.0;;;3.7;;
23252;SDS011;11795;47.054;15.408;2022-09-01T03:50:01;4.0;;;3.7;;
23252;SDS011;11795;47.054;15.408;2022-09-01T03:52:00;4.0;;;3.7;;
23252;SDS011;11795;47.054;15.408;2022-09-01T03:54:00;4.7;;;4.3;;
23252;SDS011;11795;47.054;15.408;2022-09-01T03:56:03;4.7;;;4.3;;
23252;SDS011;11795;47.054;15.408;2022-09-01T03:58:00;4.7;;;4.3;;
23252;SDS011;11795;47.054;15.408;2022-09-01T04:00:00;4.6;;;4.3;;
23252;SDS011;11795;47.054;15.408;2022-09-01T04:02:02;4.6;;;4.3;;
23252;SDS011;11795;47.054;15.408;2022-09-01T04:04:00;6.9;;;6.2;;
23252;SDS011;11795;47.054;15.408;2022-09-01T04:06:01;6.9;;;6.2;;
23252;SDS011;11795;47.054;15.408;2022-09-01T04:08:02;6.9;;;6.2;;
23252;SDS011;11795;47.054;15.408;2022-09-01T04:10:00;6.5;;;5.9;;
23252;SDS011;11795;47.054;15.408;2022-09-01T04:12:00;6.5;;;5.9;;
23252;SDS011;11795;47.054;15.408;2022-09-01T04:14:00;6.0;;;5.5;;
23252;SDS011;11795;47.054;15.408;2022-09-01T04:16:00;6.0;;;5.5;;
23252;SDS011;11795;47.054;15.408;2022-09-01T04:18:10;6.0;;;5.5;;
23252;SDS011;11795;47.054;15.408;2022-09-01T04:20:08;6.1;;;5.5;;
23252;SDS011;11795;47.054;15.408;2022-09-01T04:22:00;6.1;;;5.5;;
23252;SDS011;11795;47.054;15.408;2022-09-01T04:24:04;5.2;;;4.8;;
23252;SDS011;11795;47.054;15.408;2022-09-01T04:26:08;5.2;;;4.8;;
23252;SDS011;11795;47.054;15.408;2022-09-01T04:28:05;5.2;;;4.8;;
23252;SDS011;11795;47.054;15.408;2022-09-01T04:30:00;4.6;;;4.2;;
23252;SDS011;11795;47.054;15.408;2022-09-01T04:32:02;4.6;;;4.2;;
23252;SDS011;11795;47.054;15.408;2022-09-01T04:34:01;4.8;;;4.4;;
23252;SDS011;11795;47.054;15.408;2022-09-01T04:36:02;4.8;;;4.4;;
23252;SDS011;11795;47.054;15.408;2022-09-01T04:38:00;4.8;;;4.4;;
23252;SDS011;11795;47.054;15.408;2022-09-01T04:40:00;4.4;;;4.1;;
23252;SDS011;11795;47.054;15.408;2022-09-01T04:42:05;4.4;;;4.1;;
23252;SDS011;11795;47.054;15.408;2022-09-01T04:44:04;4.9;;;4.5;;
23252;SDS011;11795;47.054;15.408;2022-09-01T04:46:00;4.9;;;4.5;;
23252;SDS011;11795;47.054;15.408;2022-09-01T04:48:00;4.9;;;4.5;;
23252;SDS011;11795;47.054;15.408;2022-09-01T04:50:01;5.1;;;4.7;;
23252;SDS011;11795;47.054;15.408;2022-09-01T04:52:00;5.1;;;4.7;;
23252;SDS011;11795;47.054;15.408;2022-09-01T04:54:00;4.9;;;4.5;;
23252;SDS011;11795;47.054;15.408;2022-09-01T04:56:03;4.9;;;4.5;;
23252;SDS011;11795;47.054;15.408;2022-09-01T04:58:00;4.9;;;4.5;;
23252;SDS011;11795;47.054;15.408;2022-09-01T05:00:00;5.5;;;4.9;;
23252;SDS011;11795;47.054;15.408;2022-09-01T05:02:00;5.5;;;4.9;;
23252;SDS011;11795;47.054;15.408;2022-09-01T05:04:00;6.1;;;5.6;;
23252;SDS011;11795;47.054;15.408;2022-09-01T05:06:01;6.1;;;5.6;;
23252;SDS011;11795;47.054;15.408;2022-09-01T05:08:01;6.1;;;5.6;;
23252;SDS011;11795;47.054;15.408;2022-09-01T05:10:00;5.3;;;4.8;;
23252;SDS011;11795;47.054;15.408;2022-09-01T05:12:09;5.3;;;4.8;;
23252;SDS011;11795;47.054;15.408;2022-09-01T05:14:02;4.9;;;4.5;;
23252;SDS011;11795;47.054;15.408;2022-09-01T05:16:01;4.9;;;4.5;;
23252;SDS011;11795;47.054;15.408;2022-09-01T05:18:01;4.9;;;4.5;;
23252;SDS011;11795;47.054;15.408;2022-09-01T05:20:01;5.1;;;4.7;;
23252;SDS011;11795;47.054;15.408;2022-09-01T05:22:00;5.1;;;4.7;;
23252;SDS011;11795;47.054;15.408;2022-09-01T05:24:00;4.9;;;4.5;;
23252;SDS011;11795;47.054;15.408;2022-09-01T05:26:02;4.9;;;4.5;;
23252;SDS011;11795;47.054;15.408;2022-09-01T05:28:01;4.9;;;4.5;;
23252;SDS011;11795;47.054;15.408;2022-09-01T05:30:01;4.7;;;4.2;;
23252;SDS011;11795;47.054;15.408;2022-09-01T05:32:08;4.7;;;4.2;;
23252;SDS011;11795;47.054;15.408;2022-09-01T05:34:02;4.9;;;4.6;;
23252;SDS011;11795;47.054;15.408;2022-09-01T05:36:02;4.9;;;4.6;;
23252;SDS011;11795;47.054;15.408;2022-09-01T05:38:00;4.9;;;4.6;;
23252;SDS011;11795;47.054;15.408;2022-09-01T05:40:00;4.8;;;4.4;;
23252;SDS011;11795;47.054;15.408;2022-09-01T05:42:00;4.8;;;4.4;;
23252;SDS011;11795;47.054;15.408;2022-09-01T05:44:02;6.0;;;5.4;;
23252;SDS011;11795;47.054;15.408;2022-09-01T05:46:00;6.0;;;5.4;;
23252;SDS011;11795;47.054;15.408;2022-09-01T05:48:00;6.0;;;5.4;;
23252;SDS011;11795;47.054;15.408;2022-09-01T05:50:01;6.2;;;5.7;;
23252;SDS011;11795;47.054;15.408;2022-09-01T05:52:00;6.2;;;5.7;;
23252;SDS011;11795;47.054;15.408;2022-09-01T05:54:01;5.0;;;4.6;;
23252;SDS011;11795;47.054;15.408;2022-09-01T05:56:06;5.0;;;4.6;;
23252;SDS011;11795;47.054;15.408;2022-09-01T05:58:00;5.0;;;4.6;;
23252;SDS011;11795;47.054;15.408;2022-09-01T06:00:03;4.9;;;4.5;;
23252;SDS011;11795;47.054;15.408;2022-09-01T06:02:00;4.9;;;4.5;;
23252;SDS011;11795;47.054;15.408;2022-09-01T06:04:02;5.0;;;4.5;;
23252;SDS011;11795;47.054;15.408;2022-09-01T06:06:01;5.0;;;4.5;;
23252;SDS011;11795;47.054;15.408;2022-09-01T06:08:00;5.0;;;4.5;;
23252;SDS011;11795;47.054;15.408;2022-09-01T06:10:00;3.8;;;3.5;;
23252;SDS011;11795;47.054;15.408;2022-09-01T06:12:01;3.8;;;3.5;;
23252;SDS011;11795;47.054;15.408;2022-09-01T06:14:00;3.6;;;3.2;;
23252;SDS011;11795;47.054;15.408;2022-09-01T06:16:01;3.6;;;3.2;;
23252;SDS011;11795;47.054;15.408;2022-09-01T06:18:00;3.6;;;3.2;;
23252;SDS011;11795;47.054;15.408;2022-09-01T06:20:01;7.1;;;6.4;;
23252;SDS011;11795;47.054;15.408;2022-09-01T06:22:01;7.1;;;6.4;;
23252;SDS011;11795;47.054;15.408;2022-09-01T06:24:00;6.5;;;5.8;;
23252;SDS011;11795;47.054;15.408;2022-09-01T06:26:00;6.5;;;5.8;;
23252;SDS011;11795;47.054;15.408;2022-09-01T06:28:03;6.5;;;5.8;;
23252;SDS011;11795;47.054;15.408;2022-09-01T06:30:01;8.2;;;5.3;;
23252;SDS011;11795;47.054;15.408;2022-09-01T06:32:01;8.2;;;5.3;;
23252;SDS011;11795;47.054;15.408;2022-09-01T06:34:00;5.7;;;4.1;;
23252;SDS011;11795;47.054;15.408;2022-09-01T06:36:03;5.7;;;4.1;;
23252;SDS011;11795;47.054;15.408;2022-09-01T06:38:01;5.7;;;4.1;;
23252;SDS011;11795;47.054;15.408;2022-09-01T06:40:01;3.8;;;3.4;;
23252;SDS011;11795;47.054;15.408;2022-09-01T06:42:01;3.8;;;3.4;;
23252;SDS011;11795;47.054;15.408;2022-09-01T06:44:00;3.8;;;3.4;;
23252;SDS011;11795;47.054;15.408;2022-09-01T06:46:00;3.3;;;3.0;;
23252;SDS011;11795;47.054;15.408;2022-09-01T06:48:00;3.3;;;3.0;;
23252;SDS011;11795;47.054;15.408;2022-09-01T06:50:00;3.2;;;2.8;;
23252;SDS011;11795;47.054;15.408;2022-09-01T06:52:02;3.2;;;2.8;;
23252;SDS011;11795;47.054;15.408;2022-09-01T06:54:01;3.2;;;2.8;;
23252;SDS011;11795;47.054;15.408;2022-09-01T06:56:02;2.9;;;2.3;;
23252;SDS011;11795;47.054;15.408;2022-09-01T06:58:01;2.9;;;2.3;;
23252;SDS011;11795;47.054;15.408;2022-09-01T07:00:07;2.9;;;2.7;;
23252;SDS011;11795;47.054;15.408;2022-09-01T07:02:00;2.9;;;2.7;;
23252;SDS011;11795;47.054;15.408;2022-09-01T07:04:00;2.9;;;2.7;;
23252;SDS011;11795;47.054;15.408;2022-09-01T07:06:00;2.3;;;2.1;;
23252;SDS011;11795;47.054;15.408;2022-09-01T07:08:00;2.3;;;2.1;;
23252;SDS011;11795;47.054;15.408;2022-09-01T07:10:00;2.0;;;1.9;;
23252;SDS011;11795;47.054;15.408;2022-09-01T07:12:03;2.0;;;1.9;;
23252;SDS011;11795;47.054;15.408;2022-09-01T07:14:02;2.0;;;1.9;;
23252;SDS011;11795;47.054;15.408;2022-09-01T07:16:01;2.3;;;2.1;;
23252;SDS011;11795;47.054;15.408;2022-09-01T07:18:00;2.3;;;2.1;;
23252;SDS011;11795;47.054;15.408;2022-09-01T07:20:00;2.1;;;1.9;;
23252;SDS011;11795;47.054;15.408;2022-09-01T07:22:00;2.1;;;1.9;;
23252;SDS011;11795;47.054;15.408;2022-09-01T07:24:03;2.1;;;1.9;;
23252;SDS011;11795;47.054;15.408;2022-09-01T07:26:03;2.7;;;2.1;;
23252;SDS011;11795;47.054;15.408;2022-09-01T07:28:00;2.7;;;2.1;;
23252;SDS011;11795;47.054;15.408;2022-09-01T07:30:00;2.4;;;1.8;;
23252;SDS011;11795;47.054;15.408;2022-09-01T07:32:00;2.4;;;1.8;;
23252;SDS011;11795;47.054;15.408;2022-09-01T07:34:01;2.4;;;1.8;;
23252;SDS011;11795;47.054;15.408;2022-09-01T07:36:01;2.0;;;1.8;;
23252;SDS011;11795;47.054;15.408;2022-09-01T07:38:00;2.0;;;1.8;;
23252;SDS011;11795;47.054;15.408;2022-09-01T07:40:01;1.6;;;1.5;;
23252;SDS011;11795;47.054;15.408;2022-09-01T07:42:08;1.6;;;1.5;;
23252;SDS011;11795;47.054;15.408;2022-09-01T07:44:02;1.6;;;1.5;;
23252;SDS011;11795;47.054;15.408;2022-09-01T07:46:02;1.5;;;1.2;;
23252;SDS011;11795;47.054;15.408;2022-09-01T07:48:03;1.5;;;1.2;;
23252;SDS011;11795;47.054;15.408;2022-09-01T07:50:00;1.6;;;1.5;;
23252;SDS011;11795;47.054;15.408;2022-09-01T07:52:02;1.6;;;1.5;;
23252;SDS011;11795;47.054;15.408;2022-09-01T07:54:01;1.6;;;1.5;;
23252;SDS011;11795;47.054;15.408;2022-09-01T07:56:04;1.9;;;1.5;;
23252;SDS011;11795;47.054;15.408;2022-09-01T07:58:00;1.9;;;1.5;;
23252;SDS011;11795;47.054;15.408;2022-09-01T08:00:00;2.3;;;1.6;;
23252;SDS011;11795;47.054;15.408;2022-09-01T08:02:04;2.3;;;1.6;;
23252;SDS011;11795;47.054;15.408;2022-09-01T08:04:01;2.3;;;1.6;;
23252;SDS011;11795;47.054;15.408;2022-09-01T08:06:03;1.9;;;1.2;;
23252;SDS011;11795;47.054;15.408;2022-09-01T08:08:00;1.9;;;1.2;;
23252;SDS011;11795;47.054;15.408;2022-09-01T08:10:00;3.1;;;1.5;;
23252;SDS011;11795;47.054;15.408;2022-09-01T08:12:00;3.1;;;1.5;;
23252;SDS011;11795;47.054;15.408;2022-09-01T08:14:01;3.1;;;1.5;;
23252;SDS011;11795;47.054;15.408;2022-09-01T08:16:02;1.9;;;1.2;;
23252;SDS011;11795;47.054;15.408;2022-09-01T08:18:00;1.9;;;1.2;;
23252;SDS011;11795;47.054;15.408;2022-09-01T08:20:00;1.8;;;1.4;;
23252;SDS011;11795;47.054;15.408;2022-09-01T08:22:00;1.8;;;1.4;;
23252;SDS011;11795;47.054;15.408;2022-09-01T08:24:00;1.8;;;1.4;;
23252;SDS011;11795;47.054;15.408;2022-09-01T08:26:03;2.7;;;1.6;;
23252;SDS011;11795;47.054;15.408;2022-09-01T08:28:00;2.7;;;1.6;;
23252;SDS011;11795;47.054;15.408;2022-09-01T08:30:00;1.7;;;1.2;;
23252;SDS011;11795;47.054;15.408;2022-09-01T08:32:01;1.7;;;1.2;;
23252;SDS011;11795;47.054;15.408;2022-09-01T08:34:00;1.7;;;1.2;;
23252;SDS011;11795;47.054;15.408;2022-09-01T08:36:00;2.0;;;1.3;;
23252;SDS011;11795;47.054;15.408;2022-09-01T08:38:00;2.0;;;1.3;;
23252;SDS011;11795;47.054;15.408;2022-09-01T08:40:01;1.7;;;1.3;;
23252;SDS011;11795;47.054;15.408;2022-09-01T08:42:01;1.7;;;1.3;;
23252;SDS011;11795;47.054;15.408;2022-09-01T08:44:02;1.7;;;1.3;;
23252;SDS011;11795;47.054;15.408;2022-09-01T08:46:01;1.5;;;1.4;;
23252;SDS011;11795;47.054;15.408;2022-09-01T08:48:01;1.5;;;1.4;;
23252;SDS011;11795;47.054;15.408;2022-09-01T08:50:00;1.6;;;1.2;;
23252;SDS011;11795;47.054;15.408;2022-09-01T08:52:01;1.6;;;1.2;;
23252;SDS011;11795;47.054;15.408;2022-09-01T08:54:02;1.6;;;1.2;;
23252;SDS011;11795;47.054;15.408;2022-09-01T08:56:00;2.1;;;1.3;;
23252;SDS011;11795;47.054;15.408;2022-09-01T08:58:00;2.1;;;1.3;;
23252;SDS011;11795;47.054;15.408;2022-09-01T09:00:00;1.6;;;1.2;;
23252;SDS011;11795;47.054;15.408;2022-09-01T09:02:04;1.6;;;1.2;;
23252;SDS011;11795;47.054;15.408;2022-09-01T09:04:03;1.6;;;1.2;;
23252;SDS011;11795;47.054;15.408;2022-09-01T09:06:02;1.8;;;1.3;;
23252;SDS011;11795;47.054;15.408;2022-09-01T09:08:05;1.8;;;1.3;;
23252;SDS011;11795;47.054;15.408;2022-09-01T09:10:02;1.7;;;1.2;;
23252;SDS011;11795;47.054;15.408;2022-09-01T09:12:06;1.7;;;1.2;;
23252;SDS011;11795;47.054;15.408;2022-09-01T09:14:01;1.7;;;1.2;;
23252;SDS011;11795;47.054;15.408;2022-09-01T09:16:00;2.9;;;1.3;;
23252;SDS011;11795;47.054;15.408;2022-09-01T09:18:01;2.9;;;1.3;;
23252;SDS011;11795;47.054;15.408;2022-09-01T09:20:00;2.0;;;1.3;;
23252;SDS011;11795;47.054;15.408;2022-09-01T09:22:01;2.0;;;1.3;;
23252;SDS011;11795;47.054;15.408;2022-09-01T09:24:02;2.0;;;1.3;;
23252;SDS011;11795;47.054;15.408;2022-09-01T09:26:00;1.4;;;1.2;;
23252;SDS011;11795;47.054;15.408;2022-09-01T09:28:00;1.4;;;1.2;;
23252;SDS011;11795;47.054;15.408;2022-09-01T09:30:01;1.6;;;1.5;;
23252;SDS011;11795;47.054;15.408;2022-09-01T09:32:01;1.6;;;1.5;;
23252;SDS011;11795;47.054;15.408;2022-09-01T09:34:00;1.6;;;1.5;;
23252;SDS011;11795;47.054;15.408;2022-09-01T09:40:01;1.6;;;1.3;;
23252;SDS011;11795;47.054;15.408;2022-09-01T09:42:02;1.6;;;1.3;;
23252;SDS011;11795;47.054;15.408;2022-09-01T09:44:02;1.6;;;1.3;;
23252;SDS011;11795;47.054;15.408;2022-09-01T09:48:03;1.7;;;1.2;;
23252;SDS011;11795;47.054;15.408;2022-09-01T09:50:09;2.2;;;1.4;;
23252;SDS011;11795;47.054;15.408;2022-09-01T09:52:11;2.2;;;1.4;;
23252;SDS011;11795;47.054;15.408;2022-09-01T09:54:09;2.2;;;1.4;;
23252;SDS011;11795;47.054;15.408;2022-09-01T09:56:01;1.9;;;1.2;;
23252;SDS011;11795;47.054;15.408;2022-09-01T09:58:00;1.9;;;1.2;;
23252;SDS011;11795;47.054;15.408;2022-09-01T10:00:03;1.7;;;1.2;;
23252;SDS011;11795;47.054;15.408;2022-09-01T10:02:12;1.7;;;1.2;;
23252;SDS011;11795;47.054;15.408;2022-09-01T10:04:00;1.7;;;1.2;;
23252;SDS011;11795;47.054;15.408;2022-09-01T10:06:00;1.9;;;1.2;;
23252;SDS011;11795;47.054;15.408;2022-09-01T10:08:00;1.9;;;1.2;;
23252;SDS011;11795;47.054;15.408;2022-09-01T10:10:01;1.5;;;1.3;;
23252;SDS011;11795;47.054;15.408;2022-09-01T10:12:01;1.5;;;1.3;;
23252;SDS011;11795;47.054;15.408;2022-09-01T10:14:00;1.5;;;1.3;;
23252;SDS011;11795;47.054;15.408;2022-09-01T10:16:02;2.1;;;1.4;;
23252;SDS011;11795;47.054;15.408;2022-09-01T10:18:01;2.1;;;1.4;;
23252;SDS011;11795;47.054;15.408;2022-09-01T10:20:06;1.7;;;1.2;;
23252;SDS011;11795;47.054;15.408;2022-09-01T10:22:00;1.7;;;1.2;;
23252;SDS011;11795;47.054;15.408;2022-09-01T10:24:01;1.7;;;1.2;;
23252;SDS011;11795;47.054;15.408;2022-09-01T10:26:01;1.9;;;1.3;;
23252;SDS011;11795;47.054;15.408;2022-09-01T10:28:03;1.9;;;1.3;;
23252;SDS011;11795;47.054;15.408;2022-09-01T10:30:02;1.4;;;1.1;;
23252;SDS011;11795;47.054;15.408;2022-09-01T10:32:00;1.4;;;1.1;;
23252;SDS011;11795;47.054;15.408;2022-09-01T10:34:01;1.4;;;1.1;;
23252;SDS011;11795;47.054;15.408;2022-09-01T10:36:00;1.5;;;1.1;;
23252;SDS011;11795;47.054;15.408;2022-09-01T10:38:02;1.5;;;1.1;;
23252;SDS011;11795;47.054;15.408;2022-09-01T10:42:07;1.0;;;0.9;;
23252;SDS011;11795;47.054;15.408;2022-09-01T10:44:07;1.0;;;0.9;;
23252;SDS011;11795;47.054;15.408;2022-09-01T10:46:02;1.6;;;0.9;;
23252;SDS011;11795;47.054;15.408;2022-09-01T10:50:01;1.6;;;0.9;;
23252;SDS011;11795;47.054;15.408;2022-09-01T10:52:00;2.4;;;1.3;;
23252;SDS011;11795;47.054;15.408;2022-09-01T10:54:00;2.4;;;1.3;;
23252;SDS011;11795;47.054;15.408;2022-09-01T10:56:01;1.1;;;1.0;;
23252;SDS011;11795;47.054;15.408;2022-09-01T10:58:05;1.1;;;1.0;;
23252;SDS011;11795;47.054;15.408;2022-09-01T11:02:09;1.3;;;1.1;;
23252;SDS011;11795;47.054;15.408;2022-09-01T11:04:00;1.3;;;1.1;;
23252;SDS011;11795;47.054;15.408;2022-09-01T11:06:00;1.5;;;1.1;;
23252;SDS011;11795;47.054;15.408;2022-09-01T11:14:00;2.0;;;1.5;;
23252;SDS011;11795;47.054;15.408;2022-09-01T11:18:00;3.6;;;1.9;;
23252;SDS011;11795;47.054;15.408;2022-09-01T11:20:04;3.6;;;1.9;;
23252;SDS011;11795;47.054;15.408;2022-09-01T11:22:02;3.3;;;2.1;;
23252;SDS011;11795;47.054;15.408;2022-09-01T11:26:26;3.2;;;2.1;;
23252;SDS011;11795;47.054;15.408;2022-09-01T11:28:01;3.2;;;2.1;;
23252;SDS011;11795;47.054;15.408;2022-09-01T11:30:01;3.2;;;2.1;;
23252;SDS011;11795;47.054;15.408;2022-09-01T11:32:00;2.9;;;2.2;;
23252;SDS011;11795;47.054;15.408;2022-09-01T11:34:03;2.9;;;2.2;;
23252;SDS011;11795;47.054;15.408;2022-09-01T11:36:00;2.3;;;2.0;;
23252;SDS011;11795;47.054;15.408;2022-09-01T11:38:01;2.3;;;2.0;;
23252;SDS011;11795;47.054;15.408;2022-09-01T11:40:02;2.3;;;2.0;;
23252;SDS011;11795;47.054;15.408;2022-09-01T11:42:01;3.0;;;2.2;;
23252;SDS011;11795;47.054;15.408;2022-09-01T11:44:01;3.0;;;2.2;;
23252;SDS011;11795;47.054;15.408;2022-09-01T11:46:03;2.6;;;2.3;;
23252;SDS011;11795;47.054;15.408;2022-09-01T11:48:01;2.6;;;2.3;;
23252;SDS011;11795;47.054;15.408;2022-09-01T11:50:02;2.6;;;2.3;;
23252;SDS011;11795;47.054;15.408;2022-09-01T11:52:00;4.2;;;2.1;;
23252;SDS011;11795;47.054;15.408;2022-09-01T11:54:00;4.2;;;2.1;;
23252;SDS011;11795;47.054;15.408;2022-09-01T11:56:11;2.5;;;1.8;;
23252;SDS011;11795;47.054;15.408;2022-09-01T11:58:00;2.5;;;1.8;;
23252;SDS011;11795;47.054;15.408;2022-09-01T12:00:00;2.5;;;1.8;;
23252;SDS011;11795;47.054;15.408;2022-09-01T12:02:00;4.2;;;2.1;;
23252;SDS011;11795;47.054;15.408;2022-09-01T12:06:02;2.2;;;2.0;;
23252;SDS011;11795;47.054;15.408;2022-09-01T12:08:01;2.2;;;2.0;;
23252;SDS011;11795;47.054;15.408;2022-09-01T12:10:00;2.2;;;2.0;;
23252;SDS011;11795;47.054;15.408;2022-09-01T12:12:03;2.1;;;1.9;;
23252;SDS011;11795;47.054;15.408;2022-09-01T12:14:02;2.1;;;1.9;;
23252;SDS011;11795;47.054;15.408;2022-09-01T12:16:00;2.5;;;1.8;;
23252;SDS011;11795;47.054;15.408;2022-09-01T12:18:08;2.5;;;1.8;;
23252;SDS011;11795;47.054;15.408;2022-09-01T12:22:01;3.6;;;1.7;;
23252;SDS011;11795;47.054;15.408;2022-09-01T12:26:01;1.7;;;1.5;;
23252;SDS011;11795;47.054;15.408;2022-09-01T12:28:00;1.7;;;1.5;;
23252;SDS011;11795;47.054;15.408;2022-09-01T12:30:00;1.7;;;1.5;;
23252;SDS011;11795;47.054;15.408;2022-09-01T12:32:00;3.9;;;1.9;;
23252;SDS011;11795;47.054;15.408;2022-09-01T12:34:03;3.9;;;1.9;;
23252;SDS011;11795;47.054;15.408;2022-09-01T12:40:00;1.9;;;1.7;;
23252;SDS011;11795;47.054;15.408;2022-09-01T12:42:01;2.9;;;1.8;;
23252;SDS011;11795;47.054;15.408;2022-09-01T12:46:01;1.7;;;1.6;;